createdAt,value
2022-09-07T00:03:59.729Z,51.84
2022-09-07T00:09:08.457Z,52.29
2022-09-07T00:14:16.492Z,52.45
2022-09-07T00:19:24.094Z,52.66
2022-09-07T00:24:31.749Z,52.56
2022-09-07T00:29:39.765Z,52.80
2022-09-07T00:34:47.299Z,52.92
2022-09-07T00:39:54.998Z,53.18
2022-09-07T00:45:10.657Z,53.54
2022-09-07T00:50:25.373Z,53.62
2022-09-07T00:55:35.349Z,54.02
2022-09-07T01:00:46.102Z,54.20
2022-09-07T01:06:00.027Z,54.71
2022-09-07T01:11:07.704Z,54.66
2022-09-07T01:16:25.175Z,54.71
2022-09-07T01:21:45.227Z,54.96
2022-09-07T01:27:27.461Z,55.41
2022-09-07T01:32:45.346Z,55.48
2022-09-07T01:38:04.595Z,55.43
2022-09-07T01:43:15.525Z,55.38
2022-09-07T01:48:26.147Z,55.74
2022-09-07T01:53:37.799Z,55.86
2022-09-07T01:58:52.681Z,56.25
2022-09-07T02:04:06.682Z,56.35
2022-09-07T02:09:22.165Z,56.46
2022-09-07T02:14:52.382Z,56.69
2022-09-07T02:20:05.249Z,56.78
2022-09-07T02:25:19.092Z,56.85
2022-09-07T02:30:26.776Z,56.84
2022-09-07T02:35:35.455Z,56.81
2022-09-07T02:40:43.139Z,57.29
2022-09-07T02:46:09.041Z,57.28
2022-09-07T02:51:23.499Z,57.55
2022-09-07T02:56:46.458Z,57.56
2022-09-07T03:02:03.431Z,58.08
2022-09-07T03:07:15.008Z,58.13
2022-09-07T03:12:22.337Z,58.18
2022-09-07T03:17:29.376Z,58.25
2022-09-07T03:22:35.339Z,58.12
2022-09-07T03:27:42.366Z,58.37
2022-09-07T03:32:49.238Z,58.26
2022-09-07T03:37:56.013Z,58.82
2022-09-07T03:43:02.996Z,59.06
2022-09-07T03:53:35.947Z,59.61
2022-09-07T03:58:43.451Z,59.60
2022-09-07T04:03:51.111Z,59.29
2022-09-07T04:08:58.019Z,59.94
2022-09-07T04:14:05.721Z,59.98
2022-09-07T04:19:13.787Z,60.02
2022-09-07T04:24:21.094Z,60.31
2022-09-07T04:29:28.358Z,60.30
2022-09-07T04:34:35.801Z,60.44
2022-09-07T04:39:42.737Z,60.74
2022-09-07T04:44:52.238Z,61.03
2022-09-07T04:50:00.165Z,61.08
2022-09-07T04:55:08.293Z,61.09
2022-09-07T05:00:16.680Z,61.15
2022-09-07T05:05:24.075Z,61.12
2022-09-07T05:10:31.439Z,61.17
2022-09-07T05:15:39.113Z,61.25
2022-09-07T05:20:46.241Z,61.69
2022-09-07T05:25:51.752Z,61.68
2022-09-07T05:31:19.992Z,61.57
2022-09-07T05:36:28.502Z,61.58
2022-09-07T05:41:35.623Z,61.71
2022-09-07T05:46:42.826Z,60.96
2022-09-07T05:51:49.734Z,60.95
2022-09-07T05:56:57.022Z,60.79
2022-09-07T06:02:04.183Z,60.68
2022-09-07T06:07:22.781Z,60.83
2022-09-07T06:12:31.228Z,60.42
2022-09-07T06:17:38.215Z,60.58
2022-09-07T06:22:43.674Z,60.63
2022-09-07T06:27:54.215Z,60.44
2022-09-07T06:33:01.430Z,60.36
2022-09-07T06:38:08.357Z,60.63
2022-09-07T06:43:13.707Z,60.45
2022-09-07T06:48:20.798Z,60.77
2022-09-07T06:53:34.110Z,60.77
2022-09-07T06:58:42.509Z,60.89
2022-09-07T07:03:50.038Z,60.94
2022-09-07T07:08:57.288Z,61.25
2022-09-07T07:14:04.581Z,61.27
2022-09-07T07:19:11.840Z,61.28
2022-09-07T07:24:18.799Z,61.17
2022-09-07T07:29:28.285Z,61.25
2022-09-07T07:34:35.410Z,61.12
2022-09-07T07:50:36.359Z,61.51
2022-09-07T07:55:43.635Z,60.98
2022-09-07T08:00:54.755Z,60.69
2022-09-07T08:06:08.404Z,60.32
2022-09-07T08:11:17.897Z,59.79
2022-09-07T08:16:25.131Z,59.00
2022-09-07T08:21:32.374Z,58.70
2022-09-07T08:26:39.406Z,58.21
2022-09-07T08:31:47.387Z,58.36
2022-09-07T08:36:55.090Z,57.84
2022-09-07T08:42:26.550Z,57.63
2022-09-07T08:47:39.283Z,56.92
2022-09-07T08:52:52.389Z,56.84
2022-09-07T08:58:18.121Z,57.18
2022-09-07T09:03:34.889Z,57.06
2022-09-07T09:09:14.871Z,56.52
2022-09-07T09:20:01.793Z,55.77
2022-09-07T09:25:19.552Z,55.76
2022-09-07T09:30:28.246Z,55.54
2022-09-07T09:35:37.651Z,54.72
2022-09-07T09:40:54.710Z,54.46
2022-09-07T09:46:17.251Z,54.00
2022-09-07T09:56:53.406Z,53.04
2022-09-07T10:07:32.041Z,52.92
2022-09-07T10:12:41.267Z,53.00
2022-09-07T10:17:52.353Z,52.57
2022-09-07T10:23:01.969Z,51.56
2022-09-07T10:28:19.256Z,50.76
2022-09-07T10:33:36.282Z,51.19
2022-09-07T10:38:48.595Z,51.15
2022-09-07T10:43:56.293Z,50.42
2022-09-07T10:49:20.821Z,50.96
2022-09-07T10:54:36.660Z,50.88
2022-09-07T11:00:10.689Z,50.79
2022-09-07T11:05:33.662Z,50.71
2022-09-07T11:10:49.274Z,51.15
2022-09-07T11:16:02.036Z,50.55
2022-09-07T11:21:56.165Z,49.97
2022-09-07T11:26:50.772Z,50.23
2022-09-07T11:32:00.930Z,50.28
2022-09-07T11:37:12.297Z,49.74
2022-09-07T11:47:55.406Z,49.96
2022-09-07T11:53:07.929Z,50.94
2022-09-07T11:58:35.147Z,50.12
2022-09-07T12:04:03.379Z,49.45
2022-09-07T12:09:28.009Z,49.26
2022-09-07T12:14:44.544Z,49.01
2022-09-07T12:20:19.353Z,49.15
2022-09-07T12:25:27.080Z,48.56
2022-09-07T12:31:04.680Z,48.96
2022-09-07T12:36:50.803Z,48.66
2022-09-07T12:42:38.420Z,48.21
2022-09-07T12:47:56.894Z,47.57
2022-09-07T12:53:31.894Z,48.02
2022-09-07T12:58:46.335Z,48.80
2022-09-07T13:04:16.275Z,48.19
2022-09-07T13:09:37.636Z,47.95
2022-09-07T13:14:51.309Z,47.73
2022-09-07T13:20:20.320Z,47.44
2022-09-07T13:25:46.708Z,47.58
2022-09-07T13:31:05.939Z,47.82
2022-09-07T13:36:25.855Z,47.81
2022-09-07T13:41:38.781Z,47.60
2022-09-07T13:46:52.804Z,47.39
2022-09-07T13:52:06.639Z,47.18
2022-09-07T13:57:23.679Z,47.38
2022-09-07T14:02:33.963Z,47.70
2022-09-07T14:07:47.290Z,47.28
2022-09-07T14:12:55.919Z,47.15
2022-09-07T14:18:12.144Z,47.65
2022-09-07T14:23:23.130Z,47.35
2022-09-07T14:28:39.704Z,47.44
2022-09-07T14:33:51.805Z,47.01
2022-09-07T14:39:04.255Z,47.32
2022-09-07T14:44:30.200Z,47.45
2022-09-07T14:49:37.551Z,47.52
2022-09-07T14:54:44.426Z,47.29
2022-09-07T14:59:54.001Z,47.70
2022-09-07T15:05:32.932Z,47.61
2022-09-07T15:10:42.124Z,47.87
2022-09-07T15:16:00.152Z,47.95
2022-09-07T15:21:09.013Z,47.65
2022-09-07T15:31:54.345Z,47.56
2022-09-07T15:38:00.573Z,47.04
2022-09-07T15:47:57.972Z,47.22
2022-09-07T15:53:05.123Z,47.59
2022-09-07T15:58:13.737Z,47.98
2022-09-07T16:03:21.184Z,48.16
2022-09-07T16:08:32.806Z,48.33
2022-09-07T16:13:40.280Z,48.54
2022-09-07T16:18:47.392Z,48.67
2022-09-07T16:23:55.864Z,48.42
2022-09-07T16:29:02.674Z,48.62
2022-09-07T16:34:12.862Z,48.79
2022-09-07T16:39:20.836Z,49.01
2022-09-07T16:44:27.979Z,48.73
2022-09-07T16:49:34.867Z,49.28
2022-09-07T16:54:41.866Z,49.73
2022-09-07T16:59:49.664Z,49.40
2022-09-07T17:04:56.771Z,49.82
2022-09-07T17:10:04.264Z,50.24
2022-09-07T17:15:13.495Z,50.62
2022-09-07T17:20:20.734Z,51.15
2022-09-07T17:25:28.369Z,52.49
2022-09-07T17:30:39.370Z,52.36
2022-09-07T17:35:46.218Z,52.93
2022-09-07T17:40:53.037Z,52.86
2022-09-07T17:46:05.583Z,52.57
2022-09-07T17:55:18.498Z,53.63
2022-09-07T18:00:25.772Z,54.91
2022-09-07T18:05:34.370Z,54.95
2022-09-07T18:16:15.813Z,53.62
2022-09-07T18:21:25.621Z,53.55
2022-09-07T18:26:32.993Z,53.73
2022-09-07T18:31:40.037Z,54.27
2022-09-07T18:36:46.932Z,53.90
2022-09-07T18:41:55.022Z,53.95
2022-09-07T18:47:02.516Z,54.30
2022-09-07T18:57:38.521Z,54.31
2022-09-07T19:02:47.504Z,53.96
2022-09-07T19:07:57.730Z,54.01
2022-09-07T19:13:04.915Z,53.83
2022-09-07T19:18:12.347Z,53.50
2022-09-07T19:23:19.244Z,53.61
2022-09-07T19:28:26.246Z,53.38
2022-09-07T19:33:33.652Z,53.19
2022-09-07T19:38:40.953Z,53.18
2022-09-07T19:43:48.493Z,53.21
2022-09-07T19:48:57.493Z,53.10
2022-09-07T19:54:04.335Z,53.02
2022-09-07T19:59:11.905Z,53.08
2022-09-07T20:04:20.646Z,53.19
2022-09-07T20:09:27.947Z,53.22
2022-09-07T20:14:35.156Z,53.13
2022-09-07T20:19:42.033Z,52.97
2022-09-07T20:24:48.844Z,53.04
2022-09-07T20:29:56.235Z,53.17
2022-09-07T20:35:03.347Z,53.42
2022-09-07T20:40:11.668Z,53.27
2022-09-07T20:45:18.849Z,53.18
2022-09-07T20:50:25.742Z,53.02
2022-09-07T20:55:32.943Z,53.10
2022-09-07T21:00:40.438Z,53.18
2022-09-07T21:05:47.349Z,53.21
2022-09-07T21:10:55.003Z,53.62
2022-09-07T21:16:06.368Z,53.15
2022-09-07T21:21:20.960Z,53.36
2022-09-07T21:26:28.653Z,53.04
2022-09-07T21:31:35.977Z,53.42
2022-09-07T21:36:42.778Z,53.77
2022-09-07T21:41:49.699Z,54.71
2022-09-07T21:46:56.487Z,54.61
2022-09-07T21:53:46.021Z,55.54
2022-09-07T21:58:56.620Z,56.40
2022-09-07T22:04:07.021Z,56.41
2022-09-07T22:09:13.988Z,56.65
2022-09-07T22:14:21.273Z,57.51
2022-09-07T22:19:28.263Z,58.52
2022-09-07T22:24:35.094Z,59.44
2022-09-07T22:29:42.051Z,59.74
2022-09-07T22:34:49.343Z,59.44
2022-09-07T22:39:56.264Z,58.21
2022-09-07T22:45:03.238Z,58.77
2022-09-07T22:50:11.732Z,58.85
2022-09-07T22:55:18.975Z,59.01
2022-09-07T23:00:25.930Z,59.35
2022-09-07T23:05:36.917Z,59.70
2022-09-07T23:10:43.919Z,59.88
2022-09-07T23:15:51.104Z,60.08
2022-09-07T23:21:01.735Z,59.93
2022-09-07T23:26:09.157Z,61.36
2022-09-07T23:31:15.926Z,61.35
2022-09-07T23:36:23.305Z,61.86
2022-09-07T23:41:30.052Z,62.28
2022-09-07T23:46:36.863Z,61.66
2022-09-07T23:55:32.308Z,61.62
